Chicago, IL (60652)

12:00 AM CST on December 22, 2014 (GMT -0600)
Evergreen Park | Change Station
CLOSE
Current Station
Personal Weather Station
Location: Evergreen Park, IL
Elevation: 630 ft
Nearby Weather Stations

Elev 630 ft 41.73 °N, 87.71 °W | Updated 8 seconds ago

Mostly Cloudy
Mostly Cloudy
32.5 °F
Feels Like 27 °F
N
5.6
Wind Variable Wind from South
Gusts 7.4 mph

Today
High -- | Low -- °F
--% Chance of Precip.
Yesterday
High -- | Low -- °F
Precip. -- in
7:15 AM 4:23 PM
New Moon, 0% visible
Pressure 30.06 in
Visibility 9.0 miles
Clouds Mostly Cloudy 17000 ft
Windchill 27 °F
Dew Point 26 °F
Humidity 76%
Rainfall 0.00 in
Snow Depth Not available.
UV 0 out of 12
Pollen .10 out of 12
Air Quality Not available.
Flu Activity Not available.
METAR KMDW 220553Z 16009KT 9SM BKN170 01/M02 A3002 RMK AO2 SLP177 T00111022 10033 20011 400330011 58010 $

More Conditions Fewer Conditions

Pressure 30.06 in
Visibility 9.0 miles
Clouds Mostly Cloudy 17000 ft
Windchill 27 °F
Dew Point 26 °F
Humidity 76%
Rainfall 0.00 in
Snow Depth Not available.
UV 0 out of 12
Pollen .10 out of 12
Air Quality Not available.
Flu Activity Not available.
METAR KMDW 220553Z 16009KT 9SM BKN170 01/M02 A3002 RMK AO2 SLP177 T00111022 10033 20011 400330011 58010 $

More Conditions Fewer Conditions

10-Day Weather Forecast

Almanac

Astronomy

Dec. 22, 2014 Rise Set
Actual Time
Civil Twilight
Nautical Twilight
Astronomical Twilight
Moon
Length of Visible Light
Length of Day
Tomorrow will be .
, % of the Moon is Illuminated

Today's Extremes

State Highs State Lows

Community

WunderPhotos

Upload Photos

1,779,550 photos uploaded!

WunderBlogs® & News

Nearby

Air Quality

  Air Quality AQ Index Pollutant
Not available.

Snow Depth

Station Depth Elevation

Earthquake Activity

City Distance Mag. Time & Date
Minimum magnitude displayed is 2.5.

Coastal Water Temperatures

Place Temperature

Nearby Weather Stations